Merelbeke, Belgium
Current Conditions -  °F | °C
As of 10:25 PM on Sunday 23 Nov 2014 (Local Time) from EBCV Reporting Station
Overcast Overcast  
Wind Chill: 52°   Ceiling: 400
Heat Index: 52°   Visibility: 5mi
Dew Point: 50°   Wind: 15mph
Humidity: 94%   Direction: 320°NW
Pressure: 30.03"   Gusts: NA
Location:  50.99°N, 3.75°E
Report Text: EBCV 232125Z AUTO 32013KT 8000 SCT002/// BKN004/// OVC007/// 11/10 Q1017 AMB
Loading
Personal Weather Stations






























Interactive Weather Map New forecast layout! Learn more

10-Day Weather Forecast

Advertisements
Track Severe Weather on mobile